Time;durP1;ratioP1;P1;durP2;ratioP2;P2;SDS_P1;SDS_P2;PMS_P1;PMS_P2;Temp;Humidity;BMP_temperature;BMP_pressure;BME280_temperature;BME280_humidity;BME280_pressure;Samples;Min_cycle;Max_cycle;Signal;HPM_P1;HPM_P2
2023/08/27 00:01:26;;;;;;;;;;;18.70;83.90;;;17.56;100.00;95549.72;4939995;28;19910;-66
2023/08/27 00:03:52;;;;;;;;;;;18.80;83.70;;;17.57;100.00;95542.53;4935662;28;20344;-66
2023/08/27 00:06:17;;;;;;;;;;;18.80;83.90;;;17.57;100.00;95534.56;4937525;28;20359;-67
2023/08/27 00:08:43;;;;;;;;;;;18.80;83.90;;;17.58;100.00;95538.84;4968407;28;19920;-65
2023/08/27 00:11:09;;;;;;;;;;;18.80;83.90;;;17.60;100.00;95542.84;4951185;28;19960;-66
2023/08/27 00:13:34;;;;;;;;;;;18.80;83.80;;;17.61;100.00;95520.53;4970972;28;20281;-66
2023/08/27 00:16:00;;;;;;;;;;;18.90;83.70;;;17.60;100.00;95502.97;4953131;28;19981;-65
2023/08/27 00:18:26;;;;;;;;;;;18.80;83.70;;;17.58;100.00;95510.38;4952190;28;19914;-65
2023/08/27 00:20:51;;;;;;;;;;;18.80;83.80;;;17.60;100.00;95507.47;4935871;28;19921;-66
2023/08/27 00:23:17;;;;;;;;;;;18.90;83.70;;;17.61;100.00;95493.94;4953211;28;19913;-66
2023/08/27 00:25:43;;;;;;;;;;;18.90;83.80;;;17.64;100.00;95498.75;4952152;28;19917;-66
2023/08/27 00:28:11;;;;;;;;;;;18.90;83.70;;;17.65;100.00;95489.75;4953268;28;19914;-66
2023/08/27 00:30:37;;;;;;;;;;;19.00;83.50;;;17.68;100.00;95489.28;4971952;28;19939;-66
2023/08/27 00:33:03;;;;;;;;;;;19.00;83.10;;;17.67;100.00;95498.31;4972568;28;19914;-65
2023/08/27 00:35:28;;;;;;;;;;;19.00;83.00;;;17.67;100.00;95495.66;4971999;28;20374;-66
2023/08/27 00:37:54;;;;;;;;;;;19.00;82.90;;;17.66;100.00;95483.38;4954986;28;19918;-66
2023/08/27 00:40:20;;;;;;;;;;;19.00;82.90;;;17.65;100.00;95483.59;4973109;28;20305;-66
2023/08/27 00:42:45;;;;;;;;;;;19.00;83.00;;;17.63;100.00;95475.06;4972696;28;19964;-66
2023/08/27 00:45:11;;;;;;;;;;;18.90;83.20;;;17.64;100.00;95472.16;4972342;28;19918;-65
2023/08/27 00:47:37;;;;;;;;;;;18.90;83.20;;;17.64;100.00;95466.03;4973074;28;19914;-66
2023/08/27 00:50:03;;;;;;;;;;;18.90;82.90;;;17.64;100.00;95468.69;4972305;28;19910;-66
2023/08/27 00:52:31;;;;;;;;;;;18.90;83.10;;;17.65;100.00;95468.47;4971514;28;19946;-66
2023/08/27 00:54:57;;;;;;;;;;;19.00;83.10;;;17.65;100.00;95473.78;4970624;28;19910;-66
2023/08/27 00:57:23;;;;;;;;;;;19.00;82.90;;;17.61;100.00;95472.66;4954895;28;20328;-66
2023/08/27 00:59:48;;;;;;;;;;;18.90;83.10;;;17.60;100.00;95454.28;4939192;28;19918;-66
2023/08/27 01:02:15;;;;;;;;;;;18.80;83.00;;;17.59;100.00;95452.69;4954660;28;19928;-66
2023/08/27 01:04:43;;;;;;;;;;;18.90;83.10;;;17.59;100.00;95440.19;4940126;28;19921;-66
2023/08/27 01:07:15;;;;;;;;;;;18.90;83.20;;;17.57;100.00;95434.31;4955989;28;19965;-65
2023/08/27 01:09:45;;;;;;;;;;;18.90;83.30;;;17.57;100.00;95423.69;4950590;28;19910;-65
2023/08/27 01:12:16;;;;;;;;;;;18.90;83.30;;;17.57;100.00;95417.56;4967816;28;19965;-66
2023/08/27 01:14:43;;;;;;;;;;;18.90;83.60;;;17.55;100.00;95407.19;4967288;28;19973;-65
2023/08/27 01:17:09;;;;;;;;;;;18.80;83.20;;;17.54;100.00;95413.56;4956060;28;19917;-66
2023/08/27 01:19:34;;;;;;;;;;;18.80;83.10;;;17.55;100.00;95417.00;4955052;28;19972;-66
2023/08/27 01:22:00;;;;;;;;;;;18.80;83.50;;;17.55;100.00;95409.84;4938444;28;19921;-66
2023/08/27 01:24:26;;;;;;;;;;;18.80;83.50;;;17.54;100.00;95410.88;4970372;28;19918;-66
2023/08/27 01:27:16;;;;;;;;;;;18.80;83.70;;;17.53;100.00;95411.94;4983595;28;19911;-66
2023/08/27 01:29:54;;;;;;;;;;;18.80;83.60;;;17.54;100.00;95412.75;4984411;28;19965;-66
2023/08/27 01:32:29;;;;;;;;;;;18.80;83.80;;;17.56;100.00;95421.28;4941880;28;19992;-66
2023/08/27 01:34:55;;;;;;;;;;;18.80;84.00;;;17.56;100.00;95435.38;4955206;28;19968;-66
2023/08/27 01:37:21;;;;;;;;;;;18.90;84.00;;;17.56;100.00;95430.06;4970882;28;19913;-66
2023/08/27 01:40:01;;;;;;;;;;;18.90;83.90;;;17.55;100.00;95425.00;4955220;28;20421;-66
2023/08/27 01:42:27;;;;;;;;;;;18.90;83.80;;;17.53;100.00;95411.13;4972408;28;19933;-66
2023/08/27 01:44:52;;;;;;;;;;;18.80;83.60;;;17.52;100.00;95399.69;4972508;28;19918;-66
2023/08/27 01:47:18;;;;;;;;;;;18.80;83.80;;;17.51;100.00;95387.47;4941346;28;20012;-66
2023/08/27 01:49:44;;;;;;;;;;;18.80;84.00;;;17.52;100.00;95396.25;4970168;28;20261;-66
2023/08/27 01:52:09;;;;;;;;;;;18.80;84.10;;;17.52;100.00;95405.03;4942400;28;20333;-67
2023/08/27 01:54:35;;;;;;;;;;;18.80;83.90;;;17.51;100.00;95400.75;4971302;28;19910;-66
2023/08/27 01:57:02;;;;;;;;;;;18.80;83.90;;;17.52;100.00;95405.03;4972119;28;19976;-66
2023/08/27 01:59:28;;;;;;;;;;;18.80;84.00;;;17.53;100.00;95406.63;4972648;28;20390;-65
2023/08/27 02:01:54;;;;;;;;;;;18.80;83.80;;;17.50;100.00;95407.13;4938902;28;20289;-67
2023/08/27 02:04:20;;;;;;;;;;;18.80;83.80;;;17.50;100.00;95401.81;4954445;28;19921;-66
2023/08/27 02:06:45;;;;;;;;;;;18.70;84.10;;;17.51;100.00;95403.41;4971121;28;19918;-66
2023/08/27 02:09:11;;;;;;;;;;;18.80;84.00;;;17.51;100.00;95398.09;4972109;28;19913;-66
2023/08/27 02:11:37;;;;;;;;;;;18.80;84.10;;;17.53;100.00;95408.47;4936973;28;19921;-66
2023/08/27 02:14:03;;;;;;;;;;;18.90;84.00;;;17.53;100.00;95411.94;4955032;28;19910;-66
2023/08/27 02:16:29;;;;;;;;;;;18.90;84.20;;;17.55;100.00;95415.16;4971474;28;19914;-66
2023/08/27 02:18:55;;;;;;;;;;;18.90;84.40;;;17.54;100.00;95413.56;4971805;28;19933;-65
2023/08/27 02:21:21;;;;;;;;;;;18.90;84.40;;;17.55;100.00;95420.47;4972024;28;19917;-65
2023/08/27 02:23:46;;;;;;;;;;;18.90;84.30;;;17.55;100.00;95420.47;4974440;28;19918;-66
2023/08/27 02:26:12;;;;;;;;;;;18.90;84.20;;;17.55;100.00;95419.66;4970425;28;20389;-65
2023/08/27 02:28:38;;;;;;;;;;;18.90;84.40;;;17.53;100.00;95422.59;4970604;28;19914;-66
2023/08/27 02:31:05;;;;;;;;;;;18.80;84.60;;;17.54;100.00;95402.09;4970506;28;19957;-65
2023/08/27 02:33:30;;;;;;;;;;;18.90;84.50;;;17.53;100.00;95398.66;4969249;28;19914;-65
2023/08/27 02:35:56;;;;;;;;;;;18.80;84.70;;;17.51;100.00;95392.78;4971540;28;19928;-65
2023/08/27 02:38:22;;;;;;;;;;;18.80;84.40;;;17.51;100.00;95397.28;4971673;28;20025;-65
2023/08/27 02:40:49;;;;;;;;;;;18.80;84.70;;;17.49;100.00;95399.41;4954168;28;19910;-65
2023/08/27 02:43:15;;;;;;;;;;;18.80;84.60;;;17.48;100.00;95403.91;4939582;28;19965;-65
2023/08/27 02:45:41;;;;;;;;;;;18.80;84.50;;;17.48;100.00;95406.56;4971717;28;19921;-66
2023/08/27 02:48:07;;;;;;;;;;;18.80;84.50;;;17.48;100.00;95409.22;4940371;28;19924;-65
2023/08/27 02:50:33;;;;;;;;;;;18.80;84.70;;;17.46;100.00;95406.03;4954202;28;19913;-67
2023/08/27 02:52:58;;;;;;;;;;;18.80;84.80;;;17.47;100.00;95410.28;4953519;28;19914;-66
2023/08/27 02:55:27;;;;;;;;;;;18.80;84.70;;;17.45;100.00;95421.19;4940546;28;19924;-65
2023/08/27 02:57:52;;;;;;;;;;;18.80;84.60;;;17.44;100.00;95416.91;4955222;28;19945;-65
2023/08/27 03:00:18;;;;;;;;;;;18.80;84.60;;;17.44;100.00;95424.88;4953918;28;19916;-65
2023/08/27 03:02:44;;;;;;;;;;;18.80;84.70;;;17.43;100.00;95425.94;4969876;28;19925;-66
2023/08/27 03:05:09;;;;;;;;;;;18.70;84.80;;;17.44;100.00;95421.44;4955029;28;19917;-66
2023/08/27 03:07:35;;;;;;;;;;;18.70;85.10;;;17.43;100.00;95417.16;4970224;28;19917;-66
2023/08/27 03:10:01;;;;;;;;;;;18.70;84.70;;;17.42;100.00;95413.66;4952229;28;19914;-66
2023/08/27 03:12:26;;;;;;;;;;;18.70;84.80;;;17.42;100.00;95415.53;4952501;28;19959;-66
2023/08/27 03:14:52;;;;;;;;;;;18.80;85.00;;;17.43;100.00;95406.53;4951761;28;19925;-66
2023/08/27 03:17:19;;;;;;;;;;;18.80;85.00;;;17.44;100.00;95421.44;4951853;28;19929;-66
2023/08/27 03:19:45;;;;;;;;;;;18.80;85.00;;;17.44;100.00;95418.75;4969133;28;20273;-66
2023/08/27 03:22:10;;;;;;;;;;;18.80;85.00;;;17.46;100.00;95421.97;4970409;28;19940;-65
2023/08/27 03:24:36;;;;;;;;;;;18.80;84.90;;;17.47;100.00;95422.78;4952963;28;19956;-65
2023/08/27 03:27:02;;;;;;;;;;;18.80;84.80;;;17.46;100.00;95427.28;4968944;28;19910;-66
2023/08/27 03:29:29;;;;;;;;;;;18.80;84.90;;;17.47;100.00;95428.91;4952911;28;19910;-66
2023/08/27 03:31:55;;;;;;;;;;;18.80;84.80;;;17.47;100.00;95436.88;4951809;28;19918;-65
2023/08/27 03:34:23;;;;;;;;;;;18.80;84.70;;;17.46;100.00;95427.28;4952507;28;19910;-66
2023/08/27 03:36:48;;;;;;;;;;;18.80;84.90;;;17.46;100.00;95443.25;4968158;28;19910;-65
2023/08/27 03:39:14;;;;;;;;;;;18.80;85.00;;;17.47;100.00;95444.84;4968559;28;19937;-67
2023/08/27 03:41:39;;;;;;;;;;;18.80;85.10;;;17.47;100.00;95454.69;4953337;28;19942;-71
2023/08/27 03:44:05;;;;;;;;;;;18.80;84.60;;;17.45;100.00;95457.59;4934805;28;19914;-68
2023/08/27 03:46:31;;;;;;;;;;;18.80;84.80;;;17.46;100.00;95459.19;4969205;28;20305;-69
2023/08/27 03:49:04;;;;;;;;;;;18.80;84.50;;;17.46;100.00;95459.19;4935675;28;19910;-73
2023/08/27 03:51:29;;;;;;;;;;;18.80;84.50;;;17.45;100.00;95446.97;4952574;28;19914;-71
2023/08/27 03:53:56;;;;;;;;;;;18.80;84.50;;;17.46;100.00;95437.94;4935507;28;19910;-66
2023/08/27 03:56:22;;;;;;;;;;;18.80;84.70;;;17.46;100.00;95432.63;4950891;28;19914;-66
2023/08/27 03:58:47;;;;;;;;;;;18.80;84.90;;;17.44;100.00;95427.53;4967507;28;20353;-66
2023/08/27 04:01:13;;;;;;;;;;;18.80;84.90;;;17.43;100.00;95438.44;4950952;28;19984;-65
2023/08/27 04:03:39;;;;;;;;;;;18.80;84.80;;;17.40;100.00;95433.59;4953513;28;19914;-66
2023/08/27 04:06:08;;;;;;;;;;;18.70;84.70;;;17.38;100.00;95427.72;4952436;28;19922;-66
2023/08/27 04:08:34;;;;;;;;;;;18.70;85.00;;;17.38;100.00;95427.72;4956281;28;19918;-65
2023/08/27 04:11:00;;;;;;;;;;;18.70;85.20;;;17.36;100.00;95429.81;4952574;28;20278;-66
2023/08/27 04:13:26;;;;;;;;;;;18.70;85.50;;;17.37;100.00;95434.09;4969631;28;19914;-65
2023/08/27 04:16:06;;;;;;;;;;;18.70;85.40;;;17.36;100.00;95437.78;4953800;28;20396;-65
2023/08/27 04:18:34;;;;;;;;;;;18.70;85.20;;;17.35;100.00;95436.19;4971059;28;19918;-66
2023/08/27 04:21:00;;;;;;;;;;;18.70;85.30;;;17.33;100.00;95428.47;4951915;28;19924;-65
2023/08/27 04:23:26;;;;;;;;;;;18.60;85.00;;;17.33;100.00;95433.78;4940101;28;19914;-65
2023/08/27 04:25:52;;;;;;;;;;;18.60;85.10;;;17.32;100.00;95436.69;4938728;28;19918;-65
2023/08/27 04:28:17;;;;;;;;;;;18.60;85.40;;;17.31;100.00;95443.06;4954955;28;19918;-66
2023/08/27 04:30:43;;;;;;;;;;;18.70;85.20;;;17.30;100.00;95446.75;4956297;28;19914;-66
2023/08/27 04:33:10;;;;;;;;;;;18.60;84.90;;;17.30;100.00;95454.72;4955775;28;20396;-66
2023/08/27 04:35:36;;;;;;;;;;;18.60;85.00;;;17.30;100.00;95454.72;4971686;28;19920;-65
2023/08/27 04:38:03;;;;;;;;;;;18.60;85.00;;;17.28;100.00;95452.31;4970560;28;20409;-64
2023/08/27 04:40:28;;;;;;;;;;;18.60;85.00;;;17.28;100.00;95441.69;4940123;28;19971;-65
2023/08/27 04:42:55;;;;;;;;;;;18.60;84.90;;;17.28;100.00;95443.53;4971817;28;19918;-65
2023/08/27 04:45:20;;;;;;;;;;;18.70;84.90;;;17.30;100.00;95444.09;4969345;28;19921;-65
2023/08/27 04:47:46;;;;;;;;;;;18.60;85.10;;;17.30;100.00;95438.78;4973312;28;19910;-65
2023/08/27 04:50:12;;;;;;;;;;;18.70;85.00;;;17.31;100.00;95440.38;4954486;28;19917;-65
2023/08/27 04:52:37;;;;;;;;;;;18.70;85.20;;;17.30;100.00;95449.41;4954392;28;19914;-66
2023/08/27 04:55:06;;;;;;;;;;;18.60;85.10;;;17.27;100.00;95444.59;4954229;28;19913;-66
2023/08/27 04:57:35;;;;;;;;;;;18.60;85.20;;;17.27;100.00;95455.22;4940455;28;19974;-68
2023/08/27 05:00:03;;;;;;;;;;;18.60;85.20;;;17.24;100.00;95448.56;4952241;28;19917;-66
2023/08/27 05:02:29;;;;;;;;;;;18.60;85.50;;;17.24;100.00;95453.06;4954514;28;20636;-66
2023/08/27 05:04:54;;;;;;;;;;;18.60;85.40;;;17.24;100.00;95459.19;4973201;28;19926;-70
2023/08/27 05:07:20;;;;;;;;;;;18.60;85.50;;;17.27;100.00;95463.19;4955574;28;19937;-71
2023/08/27 05:09:46;;;;;;;;;;;18.70;85.20;;;17.26;100.00;95456.28;4970834;28;19914;-71
2023/08/27 05:12:12;;;;;;;;;;;18.60;85.40;;;17.27;100.00;95460.53;4952784;28;20370;-71
2023/08/27 05:14:37;;;;;;;;;;;18.70;85.40;;;17.29;100.00;95469.06;4971349;28;19922;-71
2023/08/27 05:17:03;;;;;;;;;;;18.70;85.50;;;17.29;100.00;95469.06;4969266;28;19914;-73
2023/08/27 05:19:29;;;;;;;;;;;18.70;85.50;;;17.31;100.00;95474.94;4954320;28;19914;-72
2023/08/27 05:21:54;;;;;;;;;;;18.70;85.30;;;17.31;100.00;95474.94;4986609;28;19918;-72
2023/08/27 05:24:20;;;;;;;;;;;18.70;85.50;;;17.32;100.00;95474.69;4938591;28;19918;-73
2023/08/27 05:26:46;;;;;;;;;;;18.70;85.40;;;17.33;100.00;95478.16;4974474;28;19910;-74
2023/08/27 05:29:11;;;;;;;;;;;18.70;85.40;;;17.34;100.00;95474.44;4954988;28;20341;-73
2023/08/27 05:31:37;;;;;;;;;;;18.70;85.30;;;17.34;100.00;95474.44;4972224;28;19917;-73
2023/08/27 05:34:03;;;;;;;;;;;18.70;85.30;;;17.33;100.00;95481.63;4969787;28;19918;-67
2023/08/27 05:36:28;;;;;;;;;;;18.70;85.60;;;17.31;100.00;95480.25;4970943;28;19913;-67
2023/08/27 05:38:54;;;;;;;;;;;18.60;85.50;;;17.30;100.00;95495.41;4976092;28;20408;-68
2023/08/27 05:41:20;;;;;;;;;;;18.60;85.80;;;17.30;100.00;95484.78;4953673;28;19992;-66
2023/08/27 05:43:47;;;;;;;;;;;18.60;85.90;;;17.31;100.00;95489.03;4954697;28;20373;-65
2023/08/27 05:46:13;;;;;;;;;;;18.60;86.00;;;17.31;100.00;95489.03;4969089;28;20333;-70
2023/08/27 05:48:38;;;;;;;;;;;18.60;85.60;;;17.29;100.00;95504.44;4953665;28;19920;-67
2023/08/27 05:51:04;;;;;;;;;;;18.60;86.30;;;17.28;100.00;95494.06;4937094;28;19922;-65
2023/08/27 05:53:30;;;;;;;;;;;18.60;85.60;;;17.27;100.00;95487.13;4951360;28;19961;-66
2023/08/27 05:55:55;;;;;;;;;;;18.60;85.90;;;17.27;100.00;95473.84;4936067;28;19921;-66
2023/08/27 05:58:21;;;;;;;;;;;18.60;85.50;;;17.28;100.00;95475.44;4953367;28;20372;-67
2023/08/27 06:00:51;;;;;;;;;;;18.60;85.00;;;17.27;100.00;95487.13;4970600;28;19914;-66
2023/08/27 06:03:17;;;;;;;;;;;18.60;85.10;;;17.26;100.00;95474.88;4953479;28;20014;-66
2023/08/27 06:05:42;;;;;;;;;;;18.60;85.40;;;17.24;100.00;95472.47;4969410;28;19934;-65
2023/08/27 06:08:08;;;;;;;;;;;18.60;85.50;;;17.25;100.00;95476.75;4969904;28;19918;-66
2023/08/27 06:10:35;;;;;;;;;;;18.60;85.50;;;17.24;100.00;95488.44;4969313;28;20457;-67
2023/08/27 06:13:00;;;;;;;;;;;18.60;85.40;;;17.24;100.00;95507.03;4933788;28;19993;-66
2023/08/27 06:15:29;;;;;;;;;;;18.60;85.30;;;17.25;100.00;95489.22;4953330;28;20266;-66
2023/08/27 06:17:54;;;;;;;;;;;18.60;85.40;;;17.25;100.00;95487.38;4953079;28;19968;-66
2023/08/27 06:20:20;;;;;;;;;;;18.60;85.60;;;17.28;100.00;95494.06;4952630;28;20282;-67
2023/08/27 06:22:46;;;;;;;;;;;18.60;85.50;;;17.27;100.00;95508.38;4952727;28;20020;-68
2023/08/27 06:25:12;;;;;;;;;;;18.60;85.40;;;17.28;100.00;95510.00;4954556;28;20342;-67
2023/08/27 06:27:38;;;;;;;;;;;18.70;85.30;;;17.29;100.00;95511.59;4972177;28;19925;-66
2023/08/27 06:30:05;;;;;;;;;;;18.70;85.10;;;17.28;100.00;95507.34;4955630;28;20222;-65
2023/08/27 06:32:30;;;;;;;;;;;18.70;85.20;;;17.31;100.00;95514.81;4937210;28;20427;-66
2023/08/27 06:34:56;;;;;;;;;;;18.70;84.80;;;17.31;100.00;95512.97;4937815;28;19925;-66
2023/08/27 06:37:22;;;;;;;;;;;18.70;84.60;;;17.31;100.00;95512.97;4952273;28;19964;-66
2023/08/27 06:39:49;;;;;;;;;;;18.70;84.70;;;17.34;100.00;95514.31;4968418;28;19921;-65
2023/08/27 06:42:15;;;;;;;;;;;18.70;84.50;;;17.36;100.00;95512.22;4938538;28;20027;-65
2023/08/27 06:44:41;;;;;;;;;;;18.80;84.40;;;17.37;100.00;95497.88;4936107;28;20297;-66
2023/08/27 06:47:06;;;;;;;;;;;18.80;84.20;;;17.38;100.00;95502.94;4969867;28;19914;-67
2023/08/27 06:49:32;;;;;;;;;;;18.80;84.30;;;17.40;100.00;95498.19;4953566;28;19914;-67
2023/08/27 06:51:58;;;;;;;;;;;18.90;84.50;;;17.42;100.00;95495.28;4938621;28;19914;-68
2023/08/27 06:54:23;;;;;;;;;;;18.90;84.60;;;17.43;100.00;95480.97;4969817;28;19920;-66
2023/08/27 06:56:49;;;;;;;;;;;18.90;84.50;;;17.47;100.00;95473.28;4951699;28;19937;-67
2023/08/27 06:59:16;;;;;;;;;;;19.00;84.40;;;17.49;100.00;95474.66;4971191;28;19914;-70
2023/08/27 07:01:42;;;;;;;;;;;19.10;84.10;;;17.49;100.00;95477.31;4964797;28;19910;-72
2023/08/27 07:04:07;;;;;;;;;;;19.00;83.80;;;17.51;100.00;95475.22;4937483;28;19945;-72
2023/08/27 07:06:33;;;;;;;;;;;19.00;83.80;;;17.51;100.00;95467.22;4968129;28;19914;-74
2023/08/27 07:09:00;;;;;;;;;;;19.00;84.00;;;17.53;100.00;95467.78;4968675;28;19918;-72
2023/08/27 07:11:25;;;;;;;;;;;19.00;84.10;;;17.54;100.00;95461.41;4951342;28;19914;-71
2023/08/27 07:13:51;;;;;;;;;;;19.00;84.10;;;17.56;100.00;95459.31;4955243;28;19984;-72
2023/08/27 07:16:19;;;;;;;;;;;19.00;84.20;;;17.59;100.00;95474.75;4936837;28;19920;-72
2023/08/27 07:18:45;;;;;;;;;;;19.10;83.60;;;17.59;100.00;95480.09;4952836;28;19917;-73
2023/08/27 07:21:11;;;;;;;;;;;19.10;83.70;;;17.61;100.00;95467.34;4970582;28;20452;-72
2023/08/27 07:23:37;;;;;;;;;;;19.20;83.90;;;17.64;100.00;95458.84;4968531;28;19914;-70
2023/08/27 07:26:03;;;;;;;;;;;19.10;83.10;;;17.67;100.00;95465.56;4954923;28;20382;-71
2023/08/27 07:28:30;;;;;;;;;;;19.20;83.10;;;17.69;100.00;95466.16;4970493;28;19952;-72
2023/08/27 07:30:55;;;;;;;;;;;19.20;83.30;;;17.71;100.00;95456.88;4956150;28;19961;-71
2023/08/27 07:33:21;;;;;;;;;;;19.30;83.40;;;17.75;100.00;95479.25;4953009;28;20658;-71
2023/08/27 07:35:47;;;;;;;;;;;19.30;83.30;;;17.75;100.00;95489.09;4967965;28;20400;-71
2023/08/27 07:38:14;;;;;;;;;;;19.20;82.90;;;17.76;100.00;95485.38;4968659;28;19910;-71
2023/08/27 07:40:40;;;;;;;;;;;19.20;82.90;;;17.76;100.00;95490.69;4952599;28;19910;-71
2023/08/27 07:43:06;;;;;;;;;;;19.30;83.00;;;17.78;100.00;95498.41;4936602;28;19921;-71
2023/08/27 07:45:32;;;;;;;;;;;19.20;83.00;;;17.78;100.00;95493.09;4952427;28;19914;-72
2023/08/27 07:48:00;;;;;;;;;;;19.30;83.40;;;17.77;100.00;95502.94;4953762;28;20355;-71
2023/08/27 07:50:26;;;;;;;;;;;19.20;83.00;;;17.77;100.00;95496.81;4968487;28;20370;-71
2023/08/27 07:52:53;;;;;;;;;;;19.20;83.10;;;17.77;100.00;95502.13;4951770;28;19910;-71
2023/08/27 07:55:19;;;;;;;;;;;19.20;83.20;;;17.77;100.00;95489.63;4937734;28;20365;-71
2023/08/27 07:57:45;;;;;;;;;;;19.20;83.10;;;17.81;100.00;95487.28;4951604;28;19917;-70
2023/08/27 08:00:13;;;;;;;;;;;19.30;83.40;;;17.85;100.00;95496.38;4952253;28;19933;-71
2023/08/27 08:02:40;;;;;;;;;;;19.40;83.10;;;17.87;100.00;95499.56;4954414;28;19914;-73
2023/08/27 08:05:06;;;;;;;;;;;19.40;82.60;;;17.90;100.00;95501.75;4936301;28;19918;-71
2023/08/27 08:07:34;;;;;;;;;;;19.40;82.60;;;17.91;100.00;95498.84;4953529;28;19909;-70
2023/08/27 08:10:00;;;;;;;;;;;19.40;83.10;;;17.92;100.00;95500.47;4935926;28;20013;-69
2023/08/27 08:12:25;;;;;;;;;;;19.40;82.60;;;17.92;100.00;95499.66;4950201;28;19914;-69
2023/08/27 08:14:51;;;;;;;;;;;19.40;82.70;;;17.91;100.00;95514.03;4968534;28;19918;-69
2023/08/27 08:17:17;;;;;;;;;;;19.30;82.70;;;17.90;100.00;95507.09;4952905;28;19910;-70
2023/08/27 08:19:43;;;;;;;;;;;19.30;83.30;;;17.91;100.00;95488.22;4951795;28;19965;-70
2023/08/27 08:22:08;;;;;;;;;;;19.40;83.20;;;17.94;100.00;95474.41;4967768;28;19914;-70
2023/08/27 08:24:34;;;;;;;;;;;19.40;83.50;;;17.94;100.00;95470.94;4969165;28;20227;-73
2023/08/27 08:27:02;;;;;;;;;;;19.50;83.60;;;17.96;100.00;95485.59;4936826;28;19921;-73
2023/08/27 08:29:30;;;;;;;;;;;19.50;83.60;;;17.99;100.00;95484.28;4952291;28;19954;-72
2023/08/27 08:31:57;;;;;;;;;;;19.50;82.70;;;18.00;100.00;95465.41;4954916;28;19960;-71
2023/08/27 08:34:23;;;;;;;;;;;19.60;82.60;;;18.01;100.00;95476.84;4934930;28;19914;-73
2023/08/27 08:36:49;;;;;;;;;;;19.50;82.90;;;17.99;100.00;95484.28;4950658;28;19914;-76
2023/08/27 08:39:15;;;;;;;;;;;19.40;82.30;;;17.94;100.00;95487.72;4951737;28;19949;-73
2023/08/27 08:41:41;;;;;;;;;;;19.30;82.80;;;17.92;100.00;95489.00;4951872;28;19910;-72
2023/08/27 08:44:20;;;;;;;;;;;19.30;82.90;;;17.93;100.00;95498.59;4935901;28;19939;-72
2023/08/27 08:46:45;;;;;;;;;;;19.40;82.90;;;17.94;100.00;95498.34;4955573;28;19914;-72
2023/08/27 08:49:15;;;;;;;;;;;19.40;83.30;;;17.95;100.00;95509.81;4954047;28;19913;-71
2023/08/27 08:51:41;;;;;;;;;;;19.40;83.30;;;17.93;100.00;95514.56;4958091;28;19964;-67
2023/08/27 08:54:06;;;;;;;;;;;19.30;83.50;;;17.93;100.00;95517.22;4938051;28;19914;-67
2023/08/27 08:56:36;;;;;;;;;;;19.30;83.50;;;17.93;100.00;95522.56;4940542;28;20365;-66
2023/08/27 08:59:02;;;;;;;;;;;19.30;83.50;;;17.87;100.00;95534.16;4956473;28;19910;-66
2023/08/27 09:01:28;;;;;;;;;;;19.20;84.00;;;17.85;100.00;95533.63;4940621;28;19992;-66
2023/08/27 09:03:54;;;;;;;;;;;19.20;84.20;;;17.86;100.00;95529.91;4938529;28;19910;-76
2023/08/27 09:06:19;;;;;;;;;;;19.30;84.60;;;17.88;100.00;95525.13;4935850;28;19968;-71
2023/08/27 09:08:45;;;;;;;;;;;19.30;84.40;;;17.89;100.00;95521.44;4971637;28;20497;-74
2023/08/27 09:11:14;;;;;;;;;;;19.40;84.20;;;17.92;100.00;95518.28;4956568;28;20005;-71
2023/08/27 09:13:40;;;;;;;;;;;19.50;84.00;;;17.95;100.00;95515.94;4956105;28;19917;-72
2023/08/27 09:16:06;;;;;;;;;;;19.50;84.10;;;17.99;100.00;95516.22;4971687;28;19930;-73
2023/08/27 09:18:33;;;;;;;;;;;19.60;84.00;;;18.02;100.00;95523.72;4971286;28;19910;-71
2023/08/27 09:20:59;;;;;;;;;;;19.50;84.00;;;18.05;100.00;95523.19;4938927;28;20312;-72
2023/08/27 09:23:24;;;;;;;;;;;19.60;84.10;;;18.06;100.00;95532.78;4955204;28;19918;-74
2023/08/27 09:25:51;;;;;;;;;;;19.60;83.70;;;18.08;100.00;95529.88;4971983;28;19925;-66
2023/08/27 09:28:18;;;;;;;;;;;19.60;83.80;;;18.08;100.00;95524.56;4940522;28;20579;-68
2023/08/27 09:30:43;;;;;;;;;;;19.50;83.30;;;18.09;100.00;95518.97;4955603;28;19958;-69
2023/08/27 09:33:09;;;;;;;;;;;19.60;82.90;;;18.08;100.00;95525.38;4954382;28;19920;-68
2023/08/27 09:35:39;;;;;;;;;;;19.50;83.50;;;18.06;100.00;95530.13;4954745;28;19925;-67
2023/08/27 09:38:05;;;;;;;;;;;19.40;83.50;;;18.05;100.00;95533.84;4938711;28;19918;-70
2023/08/27 09:40:31;;;;;;;;;;;19.40;83.30;;;18.05;100.00;95528.53;4955319;28;19914;-68
2023/08/27 09:43:07;;;;;;;;;;;19.40;83.70;;;18.07;100.00;95529.06;4955563;28;19968;-68
2023/08/27 09:45:33;;;;;;;;;;;19.50;83.40;;;18.08;100.00;95536.00;4954053;28;20021;-69
2023/08/27 09:47:59;;;;;;;;;;;19.50;83.00;;;18.04;100.00;95533.03;4939207;28;19914;-67
2023/08/27 09:50:25;;;;;;;;;;;19.40;82.80;;;18.02;100.00;95532.50;4970680;28;20313;-68
2023/08/27 09:52:51;;;;;;;;;;;19.20;81.40;;;17.96;100.00;95538.00;4953666;28;20460;-68
2023/08/27 09:55:17;;;;;;;;;;;19.10;81.60;;;17.93;100.00;95538.50;4970791;28;19914;-68
2023/08/27 09:57:49;;;;;;;;;;;19.10;80.90;;;17.89;100.00;95534.75;4937040;28;19914;-67
2023/08/27 10:00:16;;;;;;;;;;;19.10;81.30;;;17.91;100.00;95527.31;4939730;28;19921;-67
2023/08/27 10:02:43;;;;;;;;;;;19.10;81.50;;;17.90;100.00;95517.72;4955376;28;20356;-67
2023/08/27 10:05:09;;;;;;;;;;;19.10;81.90;;;17.90;100.00;95513.22;4972681;28;20022;-73
2023/08/27 10:07:34;;;;;;;;;;;19.20;81.60;;;17.91;100.00;95514.81;4955094;28;19920;-72
2023/08/27 10:10:02;;;;;;;;;;;19.30;81.30;;;17.93;100.00;95509.25;4954771;28;19929;-67
2023/08/27 10:12:28;;;;;;;;;;;19.40;82.10;;;17.96;100.00;95501.56;4952849;28;20400;-67
2023/08/27 10:14:53;;;;;;;;;;;19.40;81.70;;;18.00;100.00;95502.66;4956353;28;19914;-70
2023/08/27 10:17:19;;;;;;;;;;;19.40;81.20;;;18.04;100.00;95500.31;4939726;28;20662;-67
2023/08/27 10:19:45;;;;;;;;;;;19.50;81.40;;;18.04;100.00;95487.00;4971536;28;20361;-67
2023/08/27 10:22:11;;;;;;;;;;;19.40;81.00;;;18.02;100.00;95481.13;4955077;28;19969;-68
2023/08/27 10:24:37;;;;;;;;;;;19.40;80.60;;;18.04;100.00;95482.47;4969359;28;19979;-68
2023/08/27 10:27:05;;;;;;;;;;;19.50;80.30;;;18.03;100.00;95493.38;4954836;28;20319;-69
2023/08/27 10:29:31;;;;;;;;;;;19.40;79.20;;;18.04;100.00;95492.31;4940312;28;19917;-73
2023/08/27 10:31:57;;;;;;;;;;;19.50;79.50;;;18.03;100.00;95498.69;4970200;28;19910;-73
2023/08/27 10:34:23;;;;;;;;;;;19.40;78.80;;;18.02;100.00;95494.44;4969876;28;20436;-73
2023/08/27 10:36:50;;;;;;;;;;;19.40;79.30;;;18.04;100.00;95482.47;4949629;28;19917;-73
2023/08/27 10:39:16;;;;;;;;;;;19.60;79.30;;;18.11;100.00;95476.19;4953931;28;19914;-73
2023/08/27 10:41:41;;;;;;;;;;;19.60;78.50;;;18.16;100.00;95469.03;4955515;28;19910;-67
2023/08/27 10:44:09;;;;;;;;;;;19.60;78.80;;;18.19;100.00;95471.19;4953226;28;20336;-68
2023/08/27 10:46:35;;;;;;;;;;;19.60;78.90;;;18.19;100.00;95473.84;4952357;28;20009;-67
2023/08/27 10:49:01;;;;;;;;;;;19.60;79.40;;;18.18;100.00;95472.25;4953167;28;19910;-68
2023/08/27 10:51:32;;;;;;;;;;;19.60;79.70;;;18.19;100.00;95476.50;4955253;28;19921;-69
2023/08/27 10:53:59;;;;;;;;;;;19.60;79.60;;;18.17;100.00;95470.66;4952607;28;19914;-69
2023/08/27 10:56:25;;;;;;;;;;;19.50;79.50;;;18.17;100.00;95483.97;4938620;28;19941;-68
2023/08/27 10:58:50;;;;;;;;;;;19.60;79.50;;;18.20;100.00;95488.78;4974137;28;19953;-65
2023/08/27 11:01:18;;;;;;;;;;;19.70;79.30;;;18.19;100.00;95489.81;4953218;28;19965;-68
2023/08/27 11:03:57;;;;;;;;;;;19.60;80.20;;;18.19;100.00;95489.81;4970215;28;20567;-69
2023/08/27 11:06:41;;;;;;;;;;;19.60;80.40;;;18.21;100.00;95495.69;4937635;28;19925;-67